Brazoria County Airport
KLBX : rendu visible

Aérodrome :











RETROUVEZ-NOUS SUR...

 
LOGIN :

S'inscrire | Disclaimer

   EN    FR    IT 

 









Légende :    VFR   VFR Marginal   IFR   IFR Intensif   IFR Très Intensif
Visi : 
Plafond : 
>= 8 km
>= 3000ft
5 à 8 km
1000 à 3000 ft
1500m à 5 km
500 à 1000 ft
800 à 1500m
200 à 500 ft
< 800m
< 200 ft
Symboles :   Orages  Brouillard  Fortes neiges  Fortes précipitations  Vent > 20 kt






- Altitude de l'aérodrome : 25 ft


KLBX - Brazoria County

DERNIER METAR :
  • 241453Z AUTO 20012KT 10SM FEW013 OVC023 21/18 A2985 RMK AO2 SLP109 T02110183 53008

METARs EXPIRÉS :
  • 241430Z AUTO 21011KT 10SM BKN023 OVC029 21/18 A2985 RMK AO2 T02110178
  • 241353Z AUTO 20012G19KT 10SM BKN032 21/18 A2985 RMK AO2 SLP107 T02110178
  • 241253Z AUTO 19014KT 10SM BKN080 19/17 A2983 RMK AO2 SLP099 T01940172

TAF KLBX
Valide du 24 à 12h jusqu'au 25 à 12h UTC


241140Z 2412/2512 19007KT P6SM VCSH FEW035 SCT045 OVC080
TEMPO 2414/2418 4SM TSRA SCT008CB OVC015CB
FM241800 25011KT P6SM VCSH OVC025
FM242000 26012KT P6SM BKN045
FM250100 31004KT P6SM SCT080 BKN250
FM250900 00000KT P6SM BKN250



MET'MAP, la Météo Aéronautique d'un coup d'oeil ! - Copyright ORBIFLY Décembre 2007 - Disclaimer

ORBIFLY MET'MAP TEAM :

Programmation & Développement : Alexandra Zaïnal
Sur une idée originale de : Baudouin d'Aumeries
Assistance à la programmation : Marc-Olivier Méhu
Soutien technique & logistique : Manuel Goepfert

Contact : metmap@orbifly.com




SOURCES & CREDITS :

   NOAA       Earth
Advisory